Time;durP1;ratioP1;P1;durP2;ratioP2;P2;SDS_P1;SDS_P2;PMS_P1;PMS_P2;Temp;Humidity;BMP_temperature;BMP_pressure;BME280_temperature;BME280_humidity;BME280_pressure;Samples;Min_cycle;Max_cycle;Signal;HPM_P1;HPM_P2
2022/04/04 00:01:26;;;;;;;16.60;7.50;;;1.60;99.90;;;;;;5084072;28;20485;-77
2022/04/04 00:03:52;;;;;;;12.77;7.10;;;1.60;99.90;;;;;;5088909;28;20414;-77
2022/04/04 00:06:19;;;;;;;13.70;7.03;;;1.50;99.90;;;;;;5075820;28;20413;-77
2022/04/04 00:08:44;;;;;;;12.93;7.35;;;1.50;99.90;;;;;;5074376;28;20099;-77
2022/04/04 00:11:11;;;;;;;11.63;7.88;;;1.50;99.90;;;;;;5088711;28;20519;-78
2022/04/04 00:13:37;;;;;;;11.23;6.47;;;1.30;99.90;;;;;;5091270;28;20136;-77
2022/04/04 00:16:03;;;;;;;11.07;6.18;;;1.30;99.90;;;;;;5087320;28;20024;-77
2022/04/04 00:18:28;;;;;;;13.77;7.55;;;1.40;99.90;;;;;;5072478;28;20017;-77
2022/04/04 00:20:54;;;;;;;11.43;6.53;;;1.20;99.90;;;;;;5072851;28;20516;-77
2022/04/04 00:23:20;;;;;;;9.60;5.80;;;1.30;99.90;;;;;;5088178;28;20532;-77
2022/04/04 00:25:48;;;;;;;9.32;5.63;;;1.40;99.90;;;;;;5092239;28;20028;-77
2022/04/04 00:28:14;;;;;;;11.13;6.32;;;1.40;99.90;;;;;;5090459;28;20077;-77
2022/04/04 00:30:41;;;;;;;10.25;5.68;;;1.50;99.90;;;;;;5092302;28;20035;-77
2022/04/04 00:33:07;;;;;;;9.30;5.75;;;1.50;99.90;;;;;;5091170;28;20182;-77
2022/04/04 00:35:33;;;;;;;10.98;5.88;;;1.40;99.90;;;;;;5092093;28;20095;-77
2022/04/04 00:38:00;;;;;;;9.88;5.20;;;1.50;99.90;;;;;;5091593;28;20008;-77
2022/04/04 00:40:26;;;;;;;7.28;4.88;;;1.60;99.90;;;;;;5090612;28;20509;-77
2022/04/04 00:42:53;;;;;;;8.68;4.88;;;1.70;99.90;;;;;;5085727;28;20111;-77
2022/04/04 00:45:19;;;;;;;6.95;4.40;;;1.70;99.90;;;;;;5088831;28;20032;-77
2022/04/04 00:47:45;;;;;;;7.10;4.30;;;1.70;99.90;;;;;;5082409;28;20493;-77
2022/04/04 00:50:11;;;;;;;6.93;4.55;;;1.70;99.90;;;;;;5089160;28;20028;-77
2022/04/04 00:52:38;;;;;;;7.55;4.72;;;1.50;99.90;;;;;;5082320;28;20130;-77
2022/04/04 00:55:08;;;;;;;7.88;4.25;;;1.40;99.90;;;;;;5071477;28;20502;-77
2022/04/04 00:57:34;;;;;;;8.13;4.45;;;1.40;99.90;;;;;;5074884;28;20025;-77
2022/04/04 01:00:00;;;;;;;7.93;4.65;;;1.60;99.90;;;;;;5093719;28;20056;-77
2022/04/04 01:02:26;;;;;;;8.55;4.93;;;1.70;99.90;;;;;;5090427;28;20104;-77
2022/04/04 01:04:52;;;;;;;6.18;4.38;;;1.80;99.90;;;;;;5083609;28;20035;-77
2022/04/04 01:07:17;;;;;;;5.97;3.78;;;1.80;99.90;;;;;;5082445;28;20556;-77
2022/04/04 01:09:43;;;;;;;8.32;4.95;;;1.80;99.90;;;;;;5085812;28;20023;-77
2022/04/04 01:12:12;;;;;;;8.00;4.20;;;1.90;99.90;;;;;;5087079;28;20023;-77
2022/04/04 01:14:48;;;;;;;7.05;4.57;;;1.90;99.90;;;;;;5085509;28;20103;-79
2022/04/04 01:17:18;;;;;;;10.93;5.00;;;1.80;99.90;;;;;;5082356;28;20024;-77
2022/04/04 01:19:45;;;;;;;6.63;3.97;;;1.90;99.90;;;;;;5083424;28;20024;-77
2022/04/04 01:22:13;;;;;;;8.48;4.50;;;1.80;99.90;;;;;;5084135;28;20117;-77
2022/04/04 01:24:40;;;;;;;6.85;4.32;;;1.70;99.90;;;;;;5091476;28;20039;-77
2022/04/04 01:27:07;;;;;;;7.57;4.78;;;1.60;99.90;;;;;;5091837;28;20074;-77
2022/04/04 01:29:34;;;;;;;6.90;4.55;;;1.60;99.90;;;;;;5070972;28;20437;-77
2022/04/04 01:32:00;;;;;;;6.50;4.00;;;1.40;99.90;;;;;;5079549;28;20016;-77
2022/04/04 01:34:26;;;;;;;7.03;3.95;;;1.30;99.90;;;;;;5073374;28;20029;-77
2022/04/04 01:36:52;;;;;;;9.88;4.93;;;1.40;99.90;;;;;;5084116;28;20530;-77
2022/04/04 01:39:18;;;;;;;7.95;4.43;;;1.40;99.90;;;;;;5089209;28;20035;-77
2022/04/04 01:41:44;;;;;;;9.85;4.97;;;1.40;99.90;;;;;;5077909;28;20020;-77
2022/04/04 01:44:10;;;;;;;7.68;4.70;;;1.40;99.90;;;;;;5071296;28;20028;-77
2022/04/04 01:46:36;;;;;;;9.57;4.78;;;1.40;99.90;;;;;;5082464;28;20073;-77
2022/04/04 01:49:04;;;;;;;7.22;4.65;;;1.30;99.90;;;;;;5090738;28;20028;-77
2022/04/04 01:51:31;;;;;;;7.68;4.70;;;1.30;99.90;;;;;;5090201;28;20020;-77
2022/04/04 01:53:58;;;;;;;5.78;3.88;;;1.20;99.90;;;;;;5092608;28;20081;-77
2022/04/04 01:56:23;;;;;;;6.95;4.30;;;1.20;99.90;;;;;;5084083;28;20094;-76
2022/04/04 01:58:50;;;;;;;7.15;4.25;;;1.30;99.90;;;;;;5082164;28;20024;-76
2022/04/04 02:01:22;;;;;;;6.10;3.95;;;1.30;99.90;;;;;;5084820;28;20086;-76
2022/04/04 02:03:49;;;;;;;6.40;4.32;;;1.30;99.90;;;;;;5074720;28;20040;-76
2022/04/04 02:06:15;;;;;;;8.38;4.50;;;1.30;99.90;;;;;;5089706;28;20081;-77
2022/04/04 02:08:44;;;;;;;8.27;4.85;;;1.30;99.90;;;;;;5071524;28;20501;-76
2022/04/04 02:11:12;;;;;;;6.80;4.15;;;1.30;99.90;;;;;;5087602;28;20032;-76
2022/04/04 02:13:38;;;;;;;5.90;3.85;;;1.20;99.90;;;;;;5090120;28;20016;-76
2022/04/04 02:16:04;;;;;;;6.35;3.90;;;1.20;99.90;;;;;;5090407;28;20031;-76
2022/04/04 02:18:32;;;;;;;7.45;4.25;;;1.20;99.90;;;;;;5088163;28;20547;-76
2022/04/04 02:20:58;;;;;;;6.32;4.20;;;1.10;99.90;;;;;;5091707;28;20039;-76
2022/04/04 02:23:24;;;;;;;7.05;3.88;;;1.10;99.90;;;;;;5088298;28;20054;-76
2022/04/04 02:25:52;;;;;;;6.55;3.72;;;1.10;99.90;;;;;;5081555;28;20552;-77
2022/04/04 02:28:18;;;;;;;6.97;4.43;;;1.10;99.90;;;;;;5072177;28;20502;-77
2022/04/04 02:30:45;;;;;;;5.95;4.03;;;1.10;99.90;;;;;;5089776;28;20044;-76
2022/04/04 02:33:15;;;;;;;7.18;4.28;;;1.00;99.90;;;;;;5089368;28;20084;-77
2022/04/04 02:35:41;;;;;;;5.97;3.90;;;1.00;99.90;;;;;;5084656;28;20087;-76
2022/04/04 02:38:07;;;;;;;6.63;3.92;;;1.00;99.90;;;;;;5088706;28;20053;-76
2022/04/04 02:40:33;;;;;;;6.30;3.90;;;1.00;99.90;;;;;;5081562;28;20517;-76
2022/04/04 02:43:00;;;;;;;6.25;3.47;;;1.00;99.90;;;;;;5081195;28;20540;-76
2022/04/04 02:45:26;;;;;;;8.48;4.93;;;1.00;99.90;;;;;;5089394;28;20036;-75
2022/04/04 02:47:52;;;;;;;7.45;3.83;;;1.10;99.90;;;;;;5091323;28;20032;-76
2022/04/04 02:50:18;;;;;;;5.45;3.67;;;1.10;99.90;;;;;;5080835;28;20308;-76
2022/04/04 02:52:44;;;;;;;5.72;3.83;;;1.00;99.90;;;;;;5089713;28;20478;-76
2022/04/04 02:57:57;;;;;;;9.40;4.30;;;0.80;99.90;;;;;;5075799;28;20414;-76
2022/04/04 03:00:26;;;;;;;8.00;4.57;;;0.50;99.90;;;;;;5086981;28;20043;-76
2022/04/04 03:02:53;;;;;;;10.35;5.28;;;0.60;99.90;;;;;;5086048;28;20043;-76
2022/04/04 03:05:19;;;;;;;9.43;5.25;;;0.60;99.90;;;;;;5089431;28;20516;-76
2022/04/04 03:07:45;;;;;;;8.10;4.47;;;0.60;99.90;;;;;;5082541;28;20024;-76
2022/04/04 03:10:12;;;;;;;8.73;5.07;;;0.70;99.90;;;;;;5089086;28;20028;-76
2022/04/04 03:12:48;;;;;;;9.93;5.00;;;0.30;99.90;;;;;;5089304;28;20548;-76
2022/04/04 03:15:19;;;;;;;7.40;4.85;;;0.10;99.90;;;;;;5089415;28;20024;-76
2022/04/04 03:17:47;;;;;;;8.23;4.78;;;0.30;99.90;;;;;;5089533;28;20069;-76
2022/04/04 03:20:15;;;;;;;9.32;4.90;;;0.50;99.90;;;;;;5089161;28;20493;-76
2022/04/04 03:22:43;;;;;;;10.07;5.35;;;0.40;99.90;;;;;;5081267;28;20107;-76
2022/04/04 03:25:10;;;;;;;7.05;4.78;;;0.40;99.90;;;;;;5071216;28;20020;-76
2022/04/04 03:27:38;;;;;;;8.18;4.97;;;0.40;99.90;;;;;;5088651;28;20032;-76
2022/04/04 03:30:09;;;;;;;11.50;5.43;;;0.60;99.90;;;;;;5089064;28;20046;-76
2022/04/04 03:32:35;;;;;;;7.80;4.85;;;0.40;99.90;;;;;;5069502;28;20489;-76
2022/04/04 03:35:01;;;;;;;8.95;5.63;;;0.50;99.90;;;;;;5085258;28;20082;-76
2022/04/04 03:37:27;;;;;;;8.02;5.15;;;0.40;99.90;;;;;;5079956;28;20020;-76
2022/04/04 03:39:53;;;;;;;8.13;5.22;;;0.30;99.90;;;;;;5075967;28;20102;-76
2022/04/04 03:42:20;;;;;;;9.48;5.00;;;0.30;99.90;;;;;;5069462;28;20025;-76
2022/04/04 03:44:46;;;;;;;6.15;4.28;;;0.10;99.90;;;;;;5069516;28;20024;-76
2022/04/04 03:47:12;;;;;;;5.60;4.18;;;0.10;99.90;;;;;;5086744;28;20024;-76
2022/04/04 03:49:39;;;;;;;7.18;4.47;;;0.20;99.90;;;;;;5080498;28;20031;-76
2022/04/04 03:52:06;;;;;;;9.10;4.90;;;0.20;99.90;;;;;;5081124;28;20033;-76
2022/04/04 03:54:32;;;;;;;8.90;5.43;;;0.20;99.90;;;;;;5070889;28;20039;-76
2022/04/04 03:56:58;;;;;;;9.70;5.20;;;0.30;99.90;;;;;;5090723;28;20103;-76
2022/04/04 03:59:24;;;;;;;7.32;4.80;;;0.30;99.90;;;;;;5080392;28;20578;-76
2022/04/04 04:01:50;;;;;;;7.82;4.68;;;0.30;99.90;;;;;;5083021;28;20078;-76
2022/04/04 04:04:16;;;;;;;9.45;5.38;;;0.50;99.90;;;;;;5078825;28;20032;-76
2022/04/04 04:06:45;;;;;;;8.23;4.65;;;0.30;99.90;;;;;;5074127;28;20040;-76
2022/04/04 04:09:11;;;;;;;10.95;5.03;;;0.20;99.90;;;;;;5089247;28;20386;-76
2022/04/04 04:11:37;;;;;;;8.65;4.93;;;0.20;99.90;;;;;;5090195;28;20101;-76
2022/04/04 04:14:03;;;;;;;8.68;4.75;;;0.20;99.90;;;;;;5073157;28;20044;-76
2022/04/04 04:16:29;;;;;;;8.50;4.95;;;0.10;99.90;;;;;;5077257;28;20016;-76
2022/04/04 04:18:54;;;;;;;7.57;4.50;;;-0.10;99.90;;;;;;5089535;28;20039;-76
2022/04/04 04:21:20;;;;;;;6.07;3.97;;;-0.10;99.90;;;;;;5091976;28;20542;-76
2022/04/04 04:23:46;;;;;;;5.72;4.07;;;0.00;99.90;;;;;;5075464;28;20035;-76
2022/04/04 04:26:13;;;;;;;7.63;4.05;;;0.10;99.90;;;;;;5089823;28;20055;-76
2022/04/04 04:28:40;;;;;;;7.78;4.57;;;0.10;99.90;;;;;;5092251;28;20081;-76
2022/04/04 04:31:06;;;;;;;6.15;3.80;;;0.20;99.90;;;;;;5090516;28;20079;-76
2022/04/04 04:33:32;;;;;;;6.55;4.03;;;0.10;99.90;;;;;;5090945;28;20016;-76
2022/04/04 04:36:00;;;;;;;6.68;3.85;;;0.20;99.90;;;;;;5093820;28;20043;-76
2022/04/04 04:38:26;;;;;;;6.20;3.88;;;0.10;99.90;;;;;;5090684;28;20127;-76
2022/04/04 04:40:52;;;;;;;5.65;3.47;;;0.10;99.90;;;;;;5086036;28;20028;-77
2022/04/04 04:43:17;;;;;;;5.40;3.65;;;0.10;99.90;;;;;;5076949;28;20031;-76
2022/04/04 04:45:43;;;;;;;5.55;3.47;;;0.10;99.90;;;;;;5087430;28;20494;-76
2022/04/04 04:48:09;;;;;;;6.13;3.67;;;0.10;99.90;;;;;;5089452;28;20107;-76
2022/04/04 04:50:35;;;;;;;4.93;3.25;;;0.00;99.90;;;;;;5093429;28;20046;-77
2022/04/04 04:53:01;;;;;;;6.45;3.53;;;0.00;99.90;;;;;;5085942;28;20044;-76
2022/04/04 04:55:26;;;;;;;6.53;4.10;;;0.00;99.90;;;;;;5082994;28;20083;-76
2022/04/04 04:57:53;;;;;;;5.03;3.50;;;0.00;99.90;;;;;;5091723;28;20464;-77
2022/04/04 05:00:25;;;;;;;7.50;4.05;;;0.00;99.90;;;;;;5091996;28;20051;-77
2022/04/04 05:05:37;;;;;;;7.13;3.92;;;0.00;99.90;;;;;;5093448;28;20118;-77
2022/04/04 05:08:03;;;;;;;5.70;3.75;;;-0.10;99.90;;;;;;5089340;28;20035;-77
2022/04/04 05:10:29;;;;;;;5.68;4.00;;;0.00;99.90;;;;;;5082952;28;20099;-77
2022/04/04 05:12:56;;;;;;;6.68;4.10;;;0.00;99.90;;;;;;5086879;28;20104;-78
2022/04/04 05:15:23;;;;;;;5.63;3.70;;;0.00;99.90;;;;;;5088040;28;20017;-77
2022/04/04 05:17:52;;;;;;;5.95;3.63;;;0.00;99.90;;;;;;5087277;28;20595;-78
2022/04/04 05:20:21;;;;;;;5.45;3.35;;;0.10;99.90;;;;;;5090739;28;20032;-77
2022/04/04 05:22:47;;;;;;;6.40;3.70;;;0.20;99.90;;;;;;5081568;28;20016;-77
2022/04/04 05:25:14;;;;;;;5.65;3.80;;;0.10;99.90;;;;;;5074963;28;20054;-78
2022/04/04 05:27:40;;;;;;;7.80;4.65;;;0.10;99.90;;;;;;5089374;28;20028;-78
2022/04/04 05:30:07;;;;;;;6.78;3.67;;;0.10;99.90;;;;;;5073931;28;20054;-78
2022/04/04 05:32:33;;;;;;;7.63;4.55;;;0.20;99.90;;;;;;5091380;28;20031;-78
2022/04/04 05:34:59;;;;;;;7.88;5.00;;;0.00;99.90;;;;;;5088942;28;20021;-78
2022/04/04 05:37:25;;;;;;;8.02;4.88;;;-0.10;99.90;;;;;;5082586;28;20028;-78
2022/04/04 05:39:51;;;;;;;8.13;4.20;;;-0.20;99.90;;;;;;5084797;28;20493;-78
2022/04/04 05:42:17;;;;;;;7.63;4.30;;;-0.20;99.90;;;;;;5087868;28;20123;-78
2022/04/04 05:44:42;;;;;;;7.68;4.82;;;-0.20;99.90;;;;;;5092557;28;20240;-78
2022/04/04 05:47:11;;;;;;;7.60;4.75;;;-0.20;99.90;;;;;;5090518;28;20070;-78
2022/04/04 05:49:37;;;;;;;8.95;4.50;;;-0.30;99.90;;;;;;5077975;28;20028;-78
2022/04/04 05:52:03;;;;;;;6.75;4.63;;;-0.10;99.90;;;;;;5070827;28;20024;-78
2022/04/04 05:54:30;;;;;;;7.90;5.30;;;-0.30;99.90;;;;;;5073532;28;20024;-78
2022/04/04 05:56:57;;;;;;;8.75;4.88;;;-0.40;99.90;;;;;;5092501;28;20020;-79
2022/04/04 05:59:23;;;;;;;9.50;4.47;;;-0.50;99.90;;;;;;5082141;28;20398;-79
2022/04/04 06:01:48;;;;;;;8.65;4.88;;;-0.60;99.90;;;;;;5090035;28;20103;-79
2022/04/04 06:04:14;;;;;;;9.40;5.07;;;-0.30;99.90;;;;;;5085658;28;20103;-79
2022/04/04 06:06:40;;;;;;;7.53;4.70;;;-0.10;99.90;;;;;;5073393;28;20051;-79
2022/04/04 06:09:05;;;;;;;7.47;4.55;;;0.00;99.90;;;;;;5074765;28;20028;-79
2022/04/04 06:11:31;;;;;;;7.50;4.63;;;0.10;99.90;;;;;;5090710;28;20028;-79
2022/04/04 06:13:57;;;;;;;8.55;5.53;;;0.10;99.90;;;;;;5090197;28;20012;-79
2022/04/04 06:16:23;;;;;;;7.53;4.50;;;0.20;99.90;;;;;;5090322;28;20103;-79
2022/04/04 06:18:50;;;;;;;6.72;4.88;;;0.40;99.90;;;;;;5081215;28;20478;-79
2022/04/04 06:21:16;;;;;;;8.38;4.63;;;1.00;99.90;;;;;;5089443;28;20031;-79
2022/04/04 06:23:42;;;;;;;6.63;4.25;;;1.40;99.90;;;;;;5073510;28;20030;-79
2022/04/04 06:26:07;;;;;;;8.73;4.68;;;1.70;99.90;;;;;;5079782;28;20032;-79
2022/04/04 06:28:35;;;;;;;8.02;4.53;;;1.70;99.90;;;;;;5084029;28;20516;-79
2022/04/04 06:31:01;;;;;;;7.65;4.70;;;3.10;99.90;;;;;;5086429;28;20138;-79
2022/04/04 06:33:30;;;;;;;8.23;4.85;;;3.90;99.90;;;;;;5088373;28;20033;-79
2022/04/04 06:35:56;;;;;;;7.85;4.97;;;4.10;99.40;;;;;;5091810;28;20075;-83
2022/04/04 06:38:22;;;;;;;8.23;4.85;;;3.70;99.50;;;;;;5088563;28;20523;-83
2022/04/04 06:40:51;;;;;;;8.15;5.28;;;3.40;99.80;;;;;;5086926;28;20059;-83
2022/04/04 06:43:17;;;;;;;7.15;4.70;;;2.50;99.90;;;;;;5077869;28;20032;-84
2022/04/04 06:45:44;;;;;;;7.38;4.57;;;2.10;99.90;;;;;;5084533;28;20024;-81
2022/04/04 06:48:10;;;;;;;10.27;6.03;;;2.20;99.90;;;;;;5069943;28;20021;-80
2022/04/04 06:50:36;;;;;;;8.55;5.32;;;2.00;99.90;;;;;;5083205;28;20039;-81
2022/04/04 06:53:02;;;;;;;9.20;6.25;;;2.90;99.90;;;;;;5079800;28;20064;-81
2022/04/04 06:55:28;;;;;;;12.38;7.05;;;4.30;99.30;;;;;;5072218;28;20040;-81
2022/04/04 06:57:55;;;;;;;16.80;9.02;;;3.30;99.90;;;;;;5074940;28;20531;-81
2022/04/04 07:00:23;;;;;;;16.13;8.23;;;3.10;99.90;;;;;;5082914;28;20032;-80
2022/04/04 07:02:49;;;;;;;15.35;9.15;;;3.00;99.90;;;;;;5082997;28;20086;-81
2022/04/04 07:05:16;;;;;;;15.18;9.27;;;2.90;99.90;;;;;;5075729;28;20043;-81
2022/04/04 07:07:42;;;;;;;16.63;9.43;;;2.90;99.90;;;;;;5078127;28;20025;-81
2022/04/04 07:10:10;;;;;;;16.13;9.50;;;6.30;97.10;;;;;;5079740;28;20032;-81
2022/04/04 07:12:42;;;;;;;15.25;9.55;;;9.00;92.70;;;;;;5072012;28;20021;-81
2022/04/04 07:15:12;;;;;;;13.43;8.90;;;10.30;89.30;;;;;;5082678;28;20089;-81
2022/04/04 07:17:39;;;;;;;16.80;8.32;;;10.50;87.50;;;;;;5079756;28;20016;-81
2022/04/04 07:20:06;;;;;;;13.43;8.40;;;11.00;86.10;;;;;;5088839;28;20031;-81
2022/04/04 07:22:36;;;;;;;15.52;9.25;;;11.10;85.80;;;;;;5083848;28;20028;-81
2022/04/04 07:25:03;;;;;;;13.63;8.45;;;11.90;83.30;;;;;;5088861;28;20035;-81
2022/04/04 07:27:30;;;;;;;11.65;7.78;;;12.20;82.50;;;;;;5088328;28;20090;-80
2022/04/04 07:29:56;;;;;;;12.82;7.95;;;11.20;83.20;;;;;;5075837;28;20067;-80
2022/04/04 07:32:21;;;;;;;14.27;9.25;;;10.70;86.10;;;;;;5087830;28;20053;-80
2022/04/04 07:34:47;;;;;;;13.23;8.52;;;10.60;84.70;;;;;;5080842;28;20032;-80
2022/04/04 07:37:12;;;;;;;13.10;8.63;;;10.70;86.70;;;;;;5079754;28;20024;-80
2022/04/04 07:39:39;;;;;;;11.15;7.57;;;11.10;85.80;;;;;;5088437;28;20024;-80
2022/04/04 07:42:06;;;;;;;14.82;8.55;;;11.20;85.50;;;;;;5090677;28;20020;-81
2022/04/04 07:44:31;;;;;;;11.30;7.57;;;11.50;85.30;;;;;;5084072;28;20087;-80
2022/04/04 07:46:57;;;;;;;12.55;7.35;;;11.80;85.10;;;;;;5076716;28;20517;-80
2022/04/04 07:49:23;;;;;;;14.85;8.05;;;12.00;84.30;;;;;;5072732;28;20460;-80
2022/04/04 07:51:49;;;;;;;13.18;7.30;;;12.20;85.70;;;;;;5086584;28;20528;-80
2022/04/04 07:54:15;;;;;;;13.50;7.15;;;12.30;84.50;;;;;;5091396;28;20397;-80
2022/04/04 07:56:41;;;;;;;11.93;7.13;;;12.10;83.30;;;;;;5088994;28;20020;-80
2022/04/04 07:59:07;;;;;;;11.38;6.95;;;11.90;85.40;;;;;;5086386;28;20067;-81
2022/04/04 08:01:33;;;;;;;9.98;6.65;;;11.80;84.30;;;;;;5087141;28;20481;-80
2022/04/04 08:03:58;;;;;;;9.70;7.63;;;11.70;84.60;;;;;;5078587;28;20029;-79
2022/04/04 08:06:24;;;;;;;10.55;7.07;;;10.80;84.40;;;;;;5091148;28;20601;-79
2022/04/04 08:08:50;;;;;;;13.57;7.70;;;11.20;85.40;;;;;;5093855;28;20036;-79
2022/04/04 08:11:15;;;;;;;13.38;7.65;;;10.90;86.90;;;;;;5090543;28;20035;-81
2022/04/04 08:13:44;;;;;;;10.32;7.00;;;11.30;85.00;;;;;;5091136;28;20027;-79
2022/04/04 08:16:10;;;;;;;12.73;8.20;;;11.60;83.60;;;;;;5083297;28;20024;-77
2022/04/04 08:18:35;;;;;;;10.52;7.03;;;11.80;84.80;;;;;;5085776;28;20056;-77
2022/04/04 08:21:01;;;;;;;10.40;6.88;;;11.80;82.30;;;;;;5074476;28;20447;-78
2022/04/04 08:23:29;;;;;;;10.32;6.43;;;11.50;83.20;;;;;;5076552;28;20506;-78
2022/04/04 08:25:57;;;;;;;11.73;7.32;;;12.00;83.60;;;;;;5075190;28;20052;-78
2022/04/04 08:28:23;;;;;;;10.38;6.45;;;12.10;81.90;;;;;;5082911;28;20111;-78
2022/04/04 08:30:50;;;;;;;10.40;6.70;;;12.20;82.90;;;;;;5092174;28;20024;-78
2022/04/04 08:33:17;;;;;;;13.73;8.23;;;11.40;83.30;;;;;;5073828;28;20037;-79
2022/04/04 08:35:42;;;;;;;21.20;12.52;;;10.70;82.50;;;;;;5085628;28;20069;-78
2022/04/04 08:38:08;;;;;;;17.58;10.15;;;10.60;87.10;;;;;;5085509;28;20036;-78
2022/04/04 08:40:35;;;;;;;17.08;10.13;;;11.70;83.20;;;;;;5082439;28;20416;-78
2022/04/04 08:43:02;;;;;;;14.63;9.07;;;12.20;82.20;;;;;;5087114;28;20077;-78
2022/04/04 08:45:28;;;;;;;13.75;8.27;;;12.30;79.40;;;;;;5072740;28;20064;-78
2022/04/04 08:47:55;;;;;;;11.95;7.78;;;12.00;81.60;;;;;;5093581;28;20347;-78
2022/04/04 08:50:21;;;;;;;11.45;7.00;;;12.60;81.70;;;;;;5081521;28;20102;-78
2022/04/04 08:52:47;;;;;;;9.93;6.72;;;12.80;80.70;;;;;;5083536;28;20024;-78
2022/04/04 08:55:15;;;;;;;10.13;6.90;;;12.50;81.30;;;;;;5087922;28;20494;-78
2022/04/04 08:57:41;;;;;;;16.55;10.13;;;11.80;82.50;;;;;;5080011;28;20017;-78
2022/04/04 09:00:10;;;;;;;14.15;9.52;;;10.70;83.00;;;;;;5083880;28;20115;-78
2022/04/04 09:02:36;;;;;;;13.77;7.88;;;10.60;86.50;;;;;;5087220;28;20062;-78
2022/04/04 09:05:06;;;;;;;11.80;6.97;;;12.30;82.80;;;;;;5081503;28;20020;-78
2022/04/04 09:07:32;;;;;;;10.75;6.70;;;12.20;78.20;;;;;;5080122;28;20113;-77
2022/04/04 09:09:58;;;;;;;9.55;6.70;;;12.90;80.70;;;;;;5072202;28;20493;-78
2022/04/04 09:12:26;;;;;;;7.57;6.07;;;12.80;81.80;;;;;;5072190;28;20501;-77
2022/04/04 09:14:58;;;;;;;9.50;6.35;;;13.50;79.20;;;;;;5093227;28;20028;-78
2022/04/04 09:17:32;;;;;;;8.38;6.00;;;13.50;79.20;;;;;;5089797;28;20030;-78
2022/04/04 09:19:58;;;;;;;11.68;5.72;;;12.60;79.80;;;;;;5078743;28;20054;-77
2022/04/04 09:22:25;;;;;;;8.00;5.10;;;10.90;81.60;;;;;;5085758;28;20097;-78
2022/04/04 09:24:56;;;;;;;8.45;5.68;;;11.80;81.50;;;;;;5090444;28;20028;-77
2022/04/04 09:27:25;;;;;;;7.70;5.03;;;12.30;80.50;;;;;;5090059;28;20026;-77
2022/04/04 09:29:54;;;;;;;6.82;5.28;;;13.00;76.30;;;;;;5079523;28;20036;-77
2022/04/04 09:32:20;;;;;;;6.47;4.53;;;13.40;76.30;;;;;;5075221;28;20021;-77
2022/04/04 09:34:50;;;;;;;7.95;4.95;;;13.20;77.70;;;;;;5073718;28;20012;-78
2022/04/04 09:37:16;;;;;;;5.05;4.32;;;12.00;77.80;;;;;;5087393;28;20024;-77
2022/04/04 09:39:42;;;;;;;7.07;3.85;;;11.80;78.30;;;;;;5071453;28;20059;-77
2022/04/04 09:42:18;;;;;;;7.65;4.80;;;11.60;78.30;;;;;;5088057;28;20055;-77
2022/04/04 09:45:17;;;;;;;6.10;4.78;;;12.20;77.90;;;;;;5089298;28;20034;-77
2022/04/04 09:47:58;;;;;;;8.02;4.93;;;11.60;80.10;;;;;;5001242;28;20037;-77
2022/04/04 09:50:47;;;;;;;9.15;4.88;;;12.60;79.40;;;;;;5019255;28;20049;-77
2022/04/04 09:53:14;;;;;;;4.60;4.00;;;13.60;77.50;;;;;;5024177;28;20037;-77
2022/04/04 09:55:43;;;;;;;6.47;5.20;;;13.20;76.50;;;;;;5021719;28;20041;-77
2022/04/04 09:58:13;;;;;;;8.25;5.53;;;13.70;77.20;;;;;;5017049;28;20581;-77
2022/04/04 10:00:39;;;;;;;9.10;5.97;;;14.10;76.60;;;;;;5027637;28;20072;-76
2022/04/04 10:03:12;;;;;;;9.38;6.88;;;13.60;76.30;;;;;;5009593;28;20037;-77
2022/04/04 10:05:46;;;;;;;10.93;6.80;;;12.00;76.60;;;;;;5026190;28;20057;-77
2022/04/04 10:08:17;;;;;;;10.30;5.57;;;10.30;79.70;;;;;;5009420;28;20570;-77
2022/04/04 10:10:44;;;;;;;6.75;5.25;;;11.30;80.00;;;;;;5025803;28;20519;-77
2022/04/04 10:13:12;;;;;;;6.75;5.15;;;11.70;80.50;;;;;;5024057;28;20018;-77
2022/04/04 10:15:38;;;;;;;9.23;4.95;;;12.00;74.90;;;;;;5010202;28;20056;-77
2022/04/04 10:18:06;;;;;;;10.32;7.35;;;12.00;76.60;;;;;;5029589;28;20022;-77
2022/04/04 10:20:32;;;;;;;9.95;6.82;;;10.90;78.50;;;;;;5025186;28;20072;-77
2022/04/04 10:22:59;;;;;;;8.07;5.85;;;10.50;78.40;;;;;;5037152;28;20036;-77
2022/04/04 10:25:27;;;;;;;8.77;5.55;;;11.10;79.60;;;;;;5086691;28;20032;-77
2022/04/04 10:27:54;;;;;;;6.30;4.85;;;12.70;78.30;;;;;;5074516;28;20050;-77
2022/04/04 10:30:40;;;;;;;6.50;4.47;;;13.00;74.10;;;;;;5071614;28;20039;-76
2022/04/04 10:33:18;;;;;;;11.82;6.93;;;13.40;76.40;;;;;;5074661;28;20028;-77
2022/04/04 10:36:05;;;;;;;9.05;6.35;;;12.40;76.00;;;;;;5075592;28;20038;-77
2022/04/04 10:38:52;;;;;;;9.48;5.97;;;12.00;78.00;;;;;;5081040;28;20557;-77
2022/04/04 10:41:21;;;;;;;12.38;6.25;;;12.10;78.40;;;;;;5085821;28;20044;-76
2022/04/04 10:43:48;;;;;;;8.25;5.28;;;11.70;78.90;;;;;;5087813;28;20126;-77
2022/04/04 10:46:25;;;;;;;7.80;5.03;;;12.20;78.20;;;;;;5082266;28;20051;-76
2022/04/04 10:48:52;;;;;;;7.32;4.72;;;12.20;77.80;;;;;;5088141;28;20051;-76
2022/04/04 10:51:31;;;;;;;6.40;4.55;;;11.70;77.20;;;;;;5089630;28;20024;-77
2022/04/04 10:54:07;;;;;;;7.65;4.60;;;11.10;78.90;;;;;;5071448;28;20028;-76
2022/04/04 10:56:38;;;;;;;6.43;3.53;;;11.20;77.90;;;;;;5082023;28;20044;-77
2022/04/04 10:59:16;;;;;;;5.82;4.30;;;10.80;77.80;;;;;;5084064;28;20024;-77
2022/04/04 11:01:45;;;;;;;8.32;4.88;;;10.00;79.70;;;;;;5086139;28;20557;-77
2022/04/04 11:04:24;;;;;;;5.43;4.38;;;9.40;80.10;;;;;;5086790;28;20509;-76
2022/04/04 11:10:03;;;;;;;5.93;4.38;;;10.60;77.70;;;;;;5075451;28;20113;-76
2022/04/04 11:12:29;;;;;;;4.05;3.30;;;10.50;76.80;;;;;;5087804;28;20046;-76
2022/04/04 11:15:06;;;;;;;6.35;4.35;;;10.30;77.50;;;;;;5089884;28;20289;-76
2022/04/04 11:17:35;;;;;;;7.55;5.03;;;9.80;78.50;;;;;;5083007;28;20020;-76
2022/04/04 11:20:35;;;;;;;5.35;4.45;;;10.30;78.60;;;;;;5086955;28;20020;-76
2022/04/04 11:23:08;;;;;;;5.82;4.05;;;10.30;79.20;;;;;;5085254;28;20027;-77
2022/04/04 11:25:34;;;;;;;6.60;3.97;;;10.90;77.00;;;;;;5080512;28;20457;-76
2022/04/04 11:28:07;;;;;;;4.47;3.40;;;11.00;77.90;;;;;;5083732;28;20024;-77
2022/04/04 11:30:33;;;;;;;7.25;4.40;;;11.00;76.60;;;;;;5088069;28;20032;-77
2022/04/04 11:32:59;;;;;;;4.32;3.65;;;10.60;79.10;;;;;;5075345;28;20082;-77
2022/04/04 11:35:31;;;;;;;4.78;3.33;;;10.80;76.40;;;;;;5087799;28;20030;-76
2022/04/04 11:38:11;;;;;;;6.03;3.78;;;11.00;76.40;;;;;;5087268;28;20069;-76
2022/04/04 11:40:39;;;;;;;3.67;2.90;;;11.30;76.90;;;;;;5079181;28;20063;-77
2022/04/04 11:43:10;;;;;;;4.07;2.63;;;11.20;76.40;;;;;;5078575;28;20097;-76
2022/04/04 11:45:39;;;;;;;5.60;2.80;;;11.20;75.90;;;;;;5069482;28;20517;-76
2022/04/04 11:48:14;;;;;;;3.97;2.80;;;11.00;74.20;;;;;;5070781;28;20041;-77
2022/04/04 11:50:41;;;;;;;4.03;3.00;;;11.00;75.30;;;;;;5077443;28;20063;-77
2022/04/04 11:53:14;;;;;;;3.88;3.15;;;11.00;76.30;;;;;;5073410;28;20623;-76
2022/04/04 11:55:42;;;;;;;3.75;3.03;;;11.10;75.80;;;;;;5080083;28;20051;-76
2022/04/04 11:58:12;;;;;;;4.45;3.17;;;10.90;74.40;;;;;;5082941;28;20078;-76
2022/04/04 12:00:39;;;;;;;5.35;3.13;;;10.40;75.60;;;;;;5073184;28;20028;-77
2022/04/04 12:03:13;;;;;;;4.15;3.25;;;10.80;75.70;;;;;;5083883;28;20063;-76
2022/04/04 12:05:49;;;;;;;3.33;3.03;;;10.50;77.10;;;;;;5079229;28;20539;-76
2022/04/04 12:08:17;;;;;;;3.60;3.00;;;10.30;76.50;;;;;;5069255;28;20128;-76
2022/04/04 12:10:46;;;;;;;3.88;2.83;;;10.60;77.10;;;;;;5082333;28;20122;-76
2022/04/04 12:13:17;;;;;;;3.70;2.85;;;11.10;75.70;;;;;;5079057;28;20207;-76
2022/04/04 12:15:44;;;;;;;4.88;3.10;;;11.20;74.50;;;;;;5073294;28;20020;-76
2022/04/04 12:18:11;;;;;;;4.97;3.58;;;10.40;73.00;;;;;;5081476;28;20016;-76
2022/04/04 12:20:45;;;;;;;4.55;3.25;;;9.60;75.80;;;;;;5079298;28;20260;-76
2022/04/04 12:26:03;;;;;;;4.88;3.97;;;10.10;76.50;;;;;;5079277;28;20039;-76
2022/04/04 12:28:33;;;;;;;5.80;4.88;;;10.10;77.80;;;;;;5087314;28;20036;-76
2022/04/04 12:31:19;;;;;;;5.57;4.28;;;10.20;78.90;;;;;;5076199;28;20106;-76
2022/04/04 12:34:10;;;;;;;6.57;4.88;;;10.00;75.70;;;;;;5074479;28;20099;-76
2022/04/04 12:36:45;;;;;;;8.70;5.15;;;10.20;76.50;;;;;;5077450;28;20417;-76
2022/04/04 12:39:16;;;;;;;6.22;4.28;;;10.00;75.60;;;;;;5076273;28;20036;-76
2022/04/04 12:41:47;;;;;;;5.13;4.20;;;10.30;75.60;;;;;;5081449;28;20039;-77
2022/04/04 12:44:19;;;;;;;5.53;3.83;;;10.80;75.30;;;;;;5081495;28;20032;-76
2022/04/04 12:46:45;;;;;;;5.20;3.65;;;11.00;75.10;;;;;;5089809;28;20028;-76
2022/04/04 12:49:22;;;;;;;4.53;3.10;;;10.60;74.20;;;;;;5090983;28;20039;-77
2022/04/04 12:51:58;;;;;;;4.80;3.38;;;11.00;77.90;;;;;;5091858;28;20028;-76
2022/04/04 12:54:36;;;;;;;3.05;2.75;;;11.30;77.10;;;;;;5090602;28;20027;-76
2022/04/04 12:57:06;;;;;;;5.15;3.15;;;11.60;75.50;;;;;;5073289;28;20024;-77
2022/04/04 12:59:47;;;;;;;4.13;3.28;;;11.50;75.00;;;;;;5079126;28;20078;-76
2022/04/04 13:02:15;;;;;;;7.35;4.72;;;11.40;76.80;;;;;;5089389;28;20020;-76
2022/04/04 13:04:41;;;;;;;9.60;4.00;;;11.50;76.90;;;;;;5083181;28;20024;-76
2022/04/04 13:07:20;;;;;;;4.95;3.90;;;10.90;73.40;;;;;;5079204;28;20516;-76